createdAt,value
2022-11-20T00:01:43.352Z,8.23
2022-11-20T00:04:28.622Z,9.13
2022-11-20T00:07:14.109Z,8.48
2022-11-20T00:09:59.498Z,8.77
2022-11-20T00:12:44.907Z,8.55
2022-11-20T00:15:30.479Z,8.82
2022-11-20T00:18:16.098Z,8.40
2022-11-20T00:21:06.244Z,8.02
2022-11-20T00:23:54.943Z,7.97
2022-11-20T00:26:40.530Z,8.35
2022-11-20T00:29:26.086Z,8.35
2022-11-20T00:32:11.419Z,7.65
2022-11-20T00:34:56.839Z,8.07
2022-11-20T00:37:42.510Z,9.90
2022-11-20T00:40:27.716Z,7.88
2022-11-20T00:43:13.306Z,8.90
2022-11-20T00:46:19.119Z,9.63
2022-11-20T00:49:04.254Z,8.25
2022-11-20T00:51:49.738Z,9.02
2022-11-20T00:54:35.556Z,9.05
2022-11-20T00:57:20.892Z,10.30
2022-11-20T01:00:07.183Z,10.18
2022-11-20T01:02:52.226Z,9.30
2022-11-20T01:05:37.838Z,10.27
2022-11-20T01:08:23.397Z,10.32
2022-11-20T01:11:20.570Z,10.18
2022-11-20T01:14:08.235Z,10.82
2022-11-20T01:16:54.028Z,10.98
2022-11-20T01:19:39.577Z,9.40
2022-11-20T01:22:24.828Z,9.82
2022-11-20T01:25:10.163Z,9.38
2022-11-20T01:27:55.797Z,8.45
2022-11-20T01:30:41.232Z,9.18
2022-11-20T01:33:26.996Z,10.00
2022-11-20T01:36:13.835Z,9.80
2022-11-20T01:39:02.480Z,10.52
2022-11-20T01:42:10.113Z,8.95
2022-11-20T01:44:59.374Z,9.55
2022-11-20T01:47:47.491Z,8.63
2022-11-20T01:50:34.823Z,10.05
2022-11-20T01:53:25.739Z,10.18
2022-11-20T01:56:14.483Z,12.05
2022-11-20T01:59:02.875Z,11.45
2022-11-20T02:01:48.558Z,9.13
2022-11-20T02:04:34.037Z,10.65
2022-11-20T02:07:21.032Z,10.30
2022-11-20T02:10:08.383Z,9.35
2022-11-20T02:13:13.441Z,9.80
2022-11-20T02:15:58.791Z,8.90
2022-11-20T02:18:45.831Z,9.25
2022-11-20T02:21:42.906Z,11.15
2022-11-20T02:24:28.646Z,10.30
2022-11-20T02:27:16.164Z,10.10
2022-11-20T02:30:08.601Z,9.13
2022-11-20T02:35:43.199Z,9.27
2022-11-20T02:38:28.405Z,9.05
2022-11-20T02:41:14.298Z,10.02
2022-11-20T02:43:59.668Z,9.80
2022-11-20T02:46:45.326Z,10.52
2022-11-20T02:49:30.792Z,11.05
2022-11-20T02:52:16.459Z,11.43
2022-11-20T02:55:01.974Z,10.68
2022-11-20T02:57:47.715Z,10.10
2022-11-20T03:00:33.100Z,10.90
2022-11-20T03:03:18.774Z,11.90
2022-11-20T03:06:04.552Z,10.95
2022-11-20T03:08:49.742Z,11.52
2022-11-20T03:11:35.449Z,10.60
2022-11-20T03:14:20.757Z,10.85
2022-11-20T03:17:06.496Z,10.75
2022-11-20T03:19:51.507Z,9.52
2022-11-20T03:22:36.945Z,10.30
2022-11-20T03:25:23.307Z,11.40
2022-11-20T03:28:08.391Z,10.27
2022-11-20T03:30:55.438Z,10.45
2022-11-20T03:33:42.496Z,8.13
2022-11-20T03:36:28.885Z,9.50
2022-11-20T03:39:14.304Z,9.20
2022-11-20T03:41:59.704Z,10.55
2022-11-20T03:44:45.103Z,10.68
2022-11-20T03:47:30.591Z,10.23
2022-11-20T03:50:15.987Z,11.68
2022-11-20T03:53:01.546Z,10.20
2022-11-20T03:55:52.220Z,11.63
2022-11-20T03:58:42.336Z,9.63
2022-11-20T04:01:30.781Z,10.70
2022-11-20T04:04:16.019Z,9.57
2022-11-20T04:07:01.521Z,10.40
2022-11-20T04:09:46.803Z,10.27
2022-11-20T04:12:35.431Z,9.75
2022-11-20T04:15:21.014Z,10.98
2022-11-20T04:18:06.341Z,10.20
2022-11-20T04:20:52.135Z,11.65
2022-11-20T04:23:38.026Z,10.85
2022-11-20T04:26:26.730Z,11.73
2022-11-20T04:29:12.886Z,12.82
2022-11-20T04:31:58.098Z,12.45
2022-11-20T04:34:43.540Z,11.18
2022-11-20T04:37:28.952Z,11.35
2022-11-20T04:40:14.339Z,10.35
2022-11-20T04:42:59.703Z,10.95
2022-11-20T04:45:52.546Z,10.20
2022-11-20T04:51:23.275Z,11.65
2022-11-20T04:54:10.134Z,11.88
2022-11-20T04:56:55.391Z,11.93
2022-11-20T04:59:41.029Z,12.52
2022-11-20T05:02:26.348Z,12.73
2022-11-20T05:05:12.149Z,11.48
2022-11-20T05:07:58.657Z,11.10
2022-11-20T05:10:44.299Z,12.98
2022-11-20T05:13:29.854Z,12.43
2022-11-20T05:16:18.226Z,11.70
2022-11-20T05:19:03.454Z,11.48
2022-11-20T05:21:48.869Z,10.60
2022-11-20T05:24:34.220Z,11.55
2022-11-20T05:27:19.776Z,12.73
2022-11-20T05:30:06.299Z,11.65
2022-11-20T05:32:51.858Z,11.43
2022-11-20T05:35:37.317Z,12.00
2022-11-20T05:38:22.723Z,11.85
2022-11-20T05:41:13.466Z,11.40
2022-11-20T05:44:00.170Z,10.88
2022-11-20T05:46:45.688Z,11.32
2022-11-20T05:49:31.366Z,11.30
2022-11-20T05:52:16.543Z,10.93
2022-11-20T05:55:01.967Z,11.27
2022-11-20T05:57:47.473Z,12.05
2022-11-20T06:00:32.900Z,13.45
2022-11-20T06:03:18.308Z,13.20
2022-11-20T06:06:05.619Z,12.38
2022-11-20T06:08:50.963Z,12.50
2022-11-20T06:11:36.407Z,13.10
2022-11-20T06:14:21.909Z,11.45
2022-11-20T06:17:07.327Z,11.55
2022-11-20T06:19:53.051Z,12.40
2022-11-20T06:22:38.361Z,12.65
2022-11-20T06:25:23.972Z,11.30
2022-11-20T06:28:10.317Z,13.50
2022-11-20T06:30:55.535Z,12.18
2022-11-20T06:33:42.455Z,12.57
2022-11-20T06:36:27.639Z,13.38
2022-11-20T06:39:13.457Z,12.07
2022-11-20T06:41:59.451Z,12.43
2022-11-20T06:44:45.066Z,11.20
2022-11-20T06:47:30.641Z,13.05
2022-11-20T06:50:15.955Z,12.18
2022-11-20T06:53:03.647Z,13.18
2022-11-20T06:55:50.179Z,14.23
2022-11-20T06:58:37.291Z,13.48
2022-11-20T07:01:22.993Z,13.15
2022-11-20T07:04:08.294Z,14.18
2022-11-20T07:06:53.843Z,13.73
2022-11-20T07:09:39.332Z,13.75
2022-11-20T07:12:26.046Z,14.25
2022-11-20T07:15:11.406Z,13.13
2022-11-20T07:18:00.106Z,15.23
2022-11-20T07:20:45.299Z,15.18
2022-11-20T07:23:31.013Z,14.77
2022-11-20T07:26:16.558Z,14.15
2022-11-20T07:29:02.102Z,13.95
2022-11-20T07:31:47.668Z,14.52
2022-11-20T07:34:33.375Z,15.18
2022-11-20T07:37:19.064Z,13.50
2022-11-20T07:40:05.447Z,16.05
2022-11-20T07:42:56.043Z,15.32
2022-11-20T07:45:41.407Z,16.70
2022-11-20T07:48:27.135Z,16.25
2022-11-20T07:51:12.210Z,15.63
2022-11-20T07:53:57.731Z,17.13
2022-11-20T07:56:43.445Z,15.90
2022-11-20T07:59:28.620Z,15.23
2022-11-20T08:02:14.200Z,16.52
2022-11-20T08:04:59.643Z,14.77
2022-11-20T08:07:45.748Z,15.77
2022-11-20T08:10:31.682Z,16.98
2022-11-20T08:13:35.790Z,16.55
2022-11-20T08:16:21.671Z,18.25
2022-11-20T08:19:07.515Z,15.75
2022-11-20T08:21:52.856Z,15.85
2022-11-20T08:24:38.280Z,14.63
2022-11-20T08:27:23.548Z,13.75
2022-11-20T08:30:09.803Z,14.93
2022-11-20T08:32:55.687Z,16.48
2022-11-20T08:35:42.269Z,16.63
2022-11-20T08:38:27.575Z,17.73
2022-11-20T08:41:25.062Z,16.00
2022-11-20T08:44:10.392Z,15.50
2022-11-20T08:46:55.855Z,15.52
2022-11-20T08:49:41.264Z,17.48
2022-11-20T08:52:27.313Z,15.32
2022-11-20T08:55:13.002Z,14.77
2022-11-20T08:57:58.232Z,14.73
2022-11-20T09:00:43.720Z,14.15
2022-11-20T09:03:32.865Z,13.88
2022-11-20T09:06:19.242Z,13.63
2022-11-20T09:09:06.782Z,13.00
2022-11-20T09:11:52.613Z,16.27
2022-11-20T09:14:38.386Z,16.63
2022-11-20T09:17:24.009Z,15.88
2022-11-20T09:20:10.793Z,15.40
2022-11-20T09:22:57.086Z,15.27
2022-11-20T09:25:42.942Z,17.15
2022-11-20T09:28:28.284Z,15.80
2022-11-20T09:31:24.073Z,16.40
2022-11-20T09:34:09.679Z,16.30
2022-11-20T09:36:55.358Z,17.45
2022-11-20T09:39:40.713Z,17.23
2022-11-20T09:42:45.298Z,16.70
2022-11-20T09:45:55.040Z,18.27
2022-11-20T09:49:04.675Z,16.40
2022-11-20T09:52:00.511Z,16.15
2022-11-20T09:54:46.735Z,16.90
2022-11-20T09:57:38.799Z,15.70
2022-11-20T10:00:24.594Z,16.63
2022-11-20T10:03:31.463Z,15.15
2022-11-20T10:06:21.240Z,15.20
2022-11-20T10:09:13.027Z,16.23
2022-11-20T10:12:23.190Z,16.63
2022-11-20T10:15:25.552Z,18.63
2022-11-20T10:18:31.633Z,19.98
2022-11-20T10:21:37.462Z,20.52
2022-11-20T10:24:39.804Z,18.83
2022-11-20T10:27:59.363Z,16.92
2022-11-20T10:30:46.920Z,16.20
2022-11-20T10:34:05.053Z,17.85
2022-11-20T10:36:59.279Z,18.95
2022-11-20T10:40:26.711Z,17.40
2022-11-20T10:43:20.134Z,18.05
2022-11-20T10:46:26.437Z,18.15
2022-11-20T10:49:15.271Z,18.30
2022-11-20T10:52:18.511Z,18.65
2022-11-20T10:55:45.950Z,21.17
2022-11-20T10:59:03.475Z,20.17
2022-11-20T11:01:48.498Z,21.73
2022-11-20T11:04:39.672Z,20.70
2022-11-20T11:07:37.586Z,20.25
2022-11-20T11:10:33.547Z,21.27
2022-11-20T11:13:27.705Z,19.63
2022-11-20T11:16:25.163Z,22.60
2022-11-20T11:19:14.531Z,20.80
2022-11-20T11:22:00.380Z,22.85
2022-11-20T11:24:55.093Z,21.30
2022-11-20T11:27:51.448Z,25.75
2022-11-20T11:30:44.949Z,21.63
2022-11-20T11:33:34.588Z,21.65
2022-11-20T11:36:25.967Z,21.45
2022-11-20T11:39:21.252Z,22.77
2022-11-20T11:42:08.416Z,25.00
2022-11-20T11:45:06.039Z,26.70
2022-11-20T11:47:53.670Z,29.52
2022-11-20T11:50:49.495Z,28.65
2022-11-20T11:53:41.165Z,31.05
2022-11-20T11:56:27.503Z,30.83
2022-11-20T11:59:35.821Z,33.00
2022-11-20T12:02:50.784Z,32.38
2022-11-20T12:05:50.269Z,34.90
2022-11-20T12:08:53.891Z,36.17
2022-11-20T12:11:50.868Z,36.95
2022-11-20T12:14:39.334Z,36.90
2022-11-20T12:17:25.195Z,36.95
2022-11-20T12:20:14.378Z,35.80
2022-11-20T12:23:23.937Z,38.95
2022-11-20T12:26:20.435Z,35.60
2022-11-20T12:29:35.243Z,39.28
2022-11-20T12:32:35.439Z,41.92
2022-11-20T12:35:23.523Z,41.20
2022-11-20T12:38:27.692Z,39.50
2022-11-20T12:42:10.353Z,38.40
2022-11-20T12:45:28.116Z,43.13
2022-11-20T12:48:30.985Z,39.85
2022-11-20T12:51:27.487Z,39.55
2022-11-20T12:54:31.294Z,40.10
2022-11-20T12:57:53.574Z,40.65
2022-11-20T13:00:48.702Z,40.13
2022-11-20T13:03:55.513Z,44.80
2022-11-20T13:06:42.503Z,39.15
2022-11-20T13:09:29.240Z,45.55
2022-11-20T13:12:37.012Z,48.22
2022-11-20T13:15:41.080Z,42.80
2022-11-20T13:18:26.871Z,43.40
2022-11-20T13:21:38.644Z,39.70
2022-11-20T13:24:31.036Z,40.30
2022-11-20T13:27:16.342Z,39.90
2022-11-20T13:30:25.651Z,38.65
2022-11-20T13:33:26.503Z,39.60
2022-11-20T13:36:24.291Z,39.35
2022-11-20T13:39:10.428Z,37.83
2022-11-20T13:42:01.974Z,39.17
2022-11-20T13:45:02.787Z,40.78
2022-11-20T13:47:50.417Z,39.00
2022-11-20T13:50:39.050Z,36.78
2022-11-20T13:53:39.159Z,39.65
2022-11-20T13:56:44.806Z,38.60
2022-11-20T14:00:02.559Z,42.20
2022-11-20T14:03:15.644Z,39.88
2022-11-20T14:06:05.124Z,39.55
2022-11-20T14:08:52.022Z,40.05
2022-11-20T14:11:37.329Z,44.47
2022-11-20T14:14:25.432Z,39.75
2022-11-20T14:17:21.232Z,40.17
2022-11-20T14:20:13.565Z,40.95
2022-11-20T14:22:59.174Z,41.92
2022-11-20T14:25:46.262Z,38.75
2022-11-20T14:28:32.274Z,43.95
2022-11-20T14:31:28.478Z,41.75
2022-11-20T14:34:23.465Z,38.08
2022-11-20T14:37:17.120Z,41.00
2022-11-20T14:40:02.916Z,40.70
2022-11-20T14:42:48.277Z,40.28
2022-11-20T14:45:33.847Z,41.63
2022-11-20T14:48:19.765Z,41.35
2022-11-20T14:51:05.585Z,41.03
2022-11-20T14:53:50.760Z,39.67
2022-11-20T14:56:36.017Z,40.95
2022-11-20T14:59:26.638Z,39.70
2022-11-20T15:02:13.638Z,41.72
2022-11-20T15:05:00.550Z,40.88
2022-11-20T15:07:49.563Z,42.95
2022-11-20T15:10:35.554Z,44.10
2022-11-20T15:13:27.600Z,46.50
2022-11-20T15:16:21.898Z,44.00
2022-11-20T15:19:22.155Z,42.45
2022-11-20T15:22:13.821Z,46.85
2022-11-20T15:24:59.313Z,43.25
2022-11-20T15:27:46.524Z,44.47
2022-11-20T15:30:31.947Z,47.10
2022-11-20T15:33:18.622Z,43.05
2022-11-20T15:36:04.643Z,46.28
2022-11-20T15:38:49.817Z,43.80
2022-11-20T15:41:36.720Z,46.15
2022-11-20T15:44:22.571Z,46.30
2022-11-20T15:47:10.602Z,52.47
2022-11-20T15:49:56.430Z,48.05
2022-11-20T15:52:42.331Z,49.10
2022-11-20T15:55:27.981Z,57.50
2022-11-20T15:58:13.221Z,52.00
2022-11-20T16:00:58.769Z,49.72
2022-11-20T16:03:44.290Z,51.53
2022-11-20T16:06:29.722Z,52.47
2022-11-20T16:09:15.180Z,50.90
2022-11-20T16:12:01.036Z,50.92
2022-11-20T16:15:08.228Z,48.63
2022-11-20T16:17:57.695Z,52.75
2022-11-20T16:20:43.927Z,49.08
2022-11-20T16:23:29.819Z,51.75
2022-11-20T16:26:17.884Z,47.92
2022-11-20T16:29:04.916Z,55.78
2022-11-20T16:31:50.278Z,52.38
2022-11-20T16:34:35.938Z,51.90
2022-11-20T16:37:21.157Z,50.40
2022-11-20T16:40:07.284Z,47.72
2022-11-20T16:42:52.958Z,48.67
2022-11-20T16:45:43.305Z,49.47
2022-11-20T16:48:28.511Z,51.05
2022-11-20T16:51:13.705Z,47.20
2022-11-20T16:54:02.662Z,48.22
2022-11-20T16:56:48.232Z,52.40
2022-11-20T16:59:33.623Z,47.40
2022-11-20T17:02:19.091Z,56.58
2022-11-20T17:05:04.755Z,61.45
2022-11-20T17:07:50.266Z,61.22
2022-11-20T17:10:35.763Z,55.00
2022-11-20T17:13:21.058Z,58.75
2022-11-20T17:16:09.377Z,55.35
2022-11-20T17:19:02.887Z,58.13
2022-11-20T17:21:50.092Z,58.55
2022-11-20T17:24:35.804Z,61.05
2022-11-20T17:27:21.043Z,59.83
2022-11-20T17:30:06.851Z,60.95
2022-11-20T17:32:52.073Z,61.58
2022-11-20T17:35:37.655Z,58.92
2022-11-20T17:38:23.410Z,61.75
2022-11-20T17:41:11.034Z,57.72
2022-11-20T17:43:58.540Z,61.72
2022-11-20T17:46:43.760Z,56.28
2022-11-20T17:49:29.037Z,61.58
2022-11-20T17:52:14.700Z,59.25
2022-11-20T17:55:00.270Z,53.83
2022-11-20T17:57:56.610Z,60.63
2022-11-20T18:00:42.042Z,58.22
2022-11-20T18:03:28.626Z,62.33
2022-11-20T18:06:25.961Z,65.45
2022-11-20T18:09:12.140Z,60.90
2022-11-20T18:11:57.168Z,61.88
2022-11-20T18:14:43.871Z,56.65
2022-11-20T18:17:29.111Z,53.05
2022-11-20T18:20:35.205Z,54.53
2022-11-20T18:23:20.890Z,55.97
2022-11-20T18:26:07.115Z,53.13
2022-11-20T18:28:53.096Z,52.85
2022-11-20T18:31:39.614Z,51.50
2022-11-20T18:34:26.783Z,56.67
2022-11-20T18:37:15.449Z,49.95
2022-11-20T18:40:00.861Z,50.67
2022-11-20T18:43:04.962Z,52.42
2022-11-20T18:45:52.441Z,51.20
2022-11-20T18:48:39.032Z,50.22
2022-11-20T18:51:24.432Z,53.00
2022-11-20T18:54:10.550Z,51.72
2022-11-20T18:56:55.667Z,54.40
2022-11-20T18:59:43.130Z,51.60
2022-11-20T19:02:28.863Z,53.55
2022-11-20T19:05:15.152Z,54.35
2022-11-20T19:08:00.395Z,54.35
2022-11-20T19:10:45.808Z,51.92
2022-11-20T19:13:33.030Z,53.15
2022-11-20T19:16:22.495Z,51.63
2022-11-20T19:19:07.831Z,54.25
2022-11-20T19:21:53.379Z,54.78
2022-11-20T19:24:38.531Z,56.15
2022-11-20T19:27:24.150Z,54.42
2022-11-20T19:30:10.322Z,49.10
2022-11-20T19:32:57.967Z,52.75
2022-11-20T19:35:43.093Z,52.50
2022-11-20T19:38:28.595Z,51.55
2022-11-20T19:41:14.943Z,55.60
2022-11-20T19:44:18.227Z,51.33
2022-11-20T19:47:08.886Z,51.72
2022-11-20T19:49:57.423Z,51.22
2022-11-20T19:52:42.732Z,53.22
2022-11-20T19:55:28.050Z,49.80
2022-11-20T19:58:13.250Z,52.35
2022-11-20T20:01:11.776Z,47.67
2022-11-20T20:04:01.373Z,50.83
2022-11-20T20:06:46.930Z,51.47
2022-11-20T20:09:34.181Z,52.80
2022-11-20T20:12:20.433Z,54.60
2022-11-20T20:15:06.914Z,53.92
2022-11-20T20:17:53.571Z,56.03
2022-11-20T20:20:38.556Z,57.15
2022-11-20T20:23:24.051Z,56.70
2022-11-20T20:26:10.603Z,52.03
2022-11-20T20:28:56.616Z,53.40
2022-11-20T20:31:42.205Z,51.03
2022-11-20T20:34:31.990Z,46.85
2022-11-20T20:37:17.413Z,49.08
2022-11-20T20:40:02.873Z,48.42
2022-11-20T20:42:48.066Z,52.72
2022-11-20T20:45:33.427Z,48.67
2022-11-20T20:48:21.400Z,48.08
2022-11-20T20:51:08.532Z,50.00
2022-11-20T20:53:54.286Z,49.35
2022-11-20T20:56:40.004Z,45.78
2022-11-20T20:59:25.526Z,45.85
2022-11-20T21:02:11.543Z,49.22
2022-11-20T21:04:56.670Z,46.53
2022-11-20T21:08:02.296Z,44.38
2022-11-20T21:10:55.318Z,44.75
2022-11-20T21:13:42.986Z,44.58
2022-11-20T21:16:40.731Z,45.35
2022-11-20T21:19:27.187Z,43.78
2022-11-20T21:22:12.586Z,45.72
2022-11-20T21:24:57.975Z,46.00
2022-11-20T21:27:43.261Z,44.53
2022-11-20T21:30:28.766Z,54.78
2022-11-20T21:33:14.639Z,52.70
2022-11-20T21:36:01.114Z,45.80
2022-11-20T21:38:47.567Z,45.28
2022-11-20T21:41:33.108Z,46.65
2022-11-20T21:44:33.550Z,45.33
2022-11-20T21:47:18.773Z,49.42
2022-11-20T21:50:04.573Z,43.03
2022-11-20T21:52:49.977Z,45.75
2022-11-20T21:55:35.435Z,50.97
2022-11-20T21:58:21.015Z,48.20
2022-11-20T22:01:16.444Z,54.55
2022-11-20T22:04:02.595Z,58.42
2022-11-20T22:06:48.591Z,50.97
2022-11-20T22:09:34.282Z,56.13
2022-11-20T22:12:19.686Z,54.95
2022-11-20T22:15:05.502Z,52.13
2022-11-20T22:18:09.674Z,54.22
2022-11-20T22:20:54.983Z,51.35
2022-11-20T22:23:40.578Z,49.67
2022-11-20T22:26:28.444Z,46.33
2022-11-20T22:29:18.742Z,50.58
2022-11-20T22:32:04.062Z,53.03
2022-11-20T22:34:49.487Z,49.58
2022-11-20T22:37:34.814Z,49.55
2022-11-20T22:40:20.509Z,50.63
2022-11-20T22:43:05.874Z,55.28
2022-11-20T22:45:51.276Z,52.42
2022-11-20T22:48:38.998Z,52.47
2022-11-20T22:51:27.081Z,53.42
2022-11-20T22:54:12.956Z,50.65
2022-11-20T22:56:58.356Z,57.53
2022-11-20T22:59:43.688Z,54.88
2022-11-20T23:02:29.610Z,49.67
2022-11-20T23:05:15.139Z,50.58
2022-11-20T23:08:00.566Z,46.20
2022-11-20T23:10:46.119Z,48.10
2022-11-20T23:13:31.817Z,49.42
2022-11-20T23:16:19.871Z,46.35
2022-11-20T23:19:08.221Z,46.08
2022-11-20T23:21:53.663Z,51.17
2022-11-20T23:24:38.991Z,46.65
2022-11-20T23:27:28.208Z,43.60
2022-11-20T23:30:14.074Z,47.03
2022-11-20T23:32:59.466Z,45.90
2022-11-20T23:35:47.292Z,44.38
2022-11-20T23:38:33.296Z,43.25
2022-11-20T23:41:18.759Z,47.65
2022-11-20T23:44:04.491Z,45.50
2022-11-20T23:46:49.527Z,42.60
2022-11-20T23:49:34.968Z,42.30
2022-11-20T23:52:20.352Z,40.50
2022-11-20T23:55:06.257Z,41.53
2022-11-20T23:57:51.688Z,47.22
